Time;durP1;ratioP1;P1;durP2;ratioP2;P2;SDS_P1;SDS_P2;PMS_P1;PMS_P2;Temp;Humidity;BMP_temperature;BMP_pressure;BME280_temperature;BME280_humidity;BME280_pressure;Samples;Min_cycle;Max_cycle;Signal;HPM_P1;HPM_P2
2022/07/24 00:02:08;;;;;;;6.88;4.18;;;15.70;99.90;;;;;;4905369;29;20722;-57
2022/07/24 00:04:33;;;;;;;4.82;4.32;;;15.60;99.90;;;;;;4904408;29;20091;-57
2022/07/24 00:06:59;;;;;;;6.18;4.40;;;15.60;99.90;;;;;;4910858;29;20123;-57
2022/07/24 00:09:24;;;;;;;6.43;3.67;;;15.60;99.90;;;;;;4903447;29;20095;-57
2022/07/24 00:11:50;;;;;;;5.57;4.10;;;15.50;99.90;;;;;;4904542;29;20040;-57
2022/07/24 00:14:16;;;;;;;5.40;4.20;;;15.50;99.90;;;;;;4886884;29;20068;-57
2022/07/24 00:16:42;;;;;;;6.55;4.30;;;15.20;99.90;;;;;;4905782;29;20087;-57
2022/07/24 00:19:08;;;;;;;6.00;4.20;;;15.40;99.90;;;;;;4904586;29;20132;-56
2022/07/24 00:21:33;;;;;;;5.95;4.32;;;15.40;99.90;;;;;;4904955;29;20044;-57
2022/07/24 00:23:59;;;;;;;5.97;4.40;;;15.40;99.90;;;;;;4904410;29;20052;-57
2022/07/24 00:26:25;;;;;;;5.75;5.13;;;15.30;99.90;;;;;;4904244;29;20123;-58
2022/07/24 00:28:50;;;;;;;6.25;5.05;;;15.30;99.90;;;;;;4904922;29;20059;-57
2022/07/24 00:31:16;;;;;;;7.45;4.82;;;15.30;99.90;;;;;;4904000;29;20040;-55
2022/07/24 00:33:42;;;;;;;6.63;5.22;;;15.30;99.90;;;;;;4904512;29;20048;-56
2022/07/24 00:36:08;;;;;;;6.05;5.07;;;15.20;99.90;;;;;;4887729;29;20655;-57
2022/07/24 00:38:34;;;;;;;6.85;5.22;;;15.30;99.90;;;;;;4904232;29;20040;-57
2022/07/24 00:40:59;;;;;;;6.93;5.32;;;15.20;99.90;;;;;;4903959;29;20520;-57
2022/07/24 00:43:25;;;;;;;7.93;5.28;;;15.20;99.90;;;;;;4904044;29;20047;-57
2022/07/24 00:45:51;;;;;;;6.28;4.97;;;15.30;99.90;;;;;;4904557;29;20083;-57
2022/07/24 00:48:16;;;;;;;6.00;5.40;;;15.30;99.90;;;;;;4904318;29;20403;-54
2022/07/24 00:50:43;;;;;;;6.30;5.10;;;15.20;99.90;;;;;;4904796;29;20551;-57
2022/07/24 00:53:09;;;;;;;7.18;5.47;;;15.20;99.90;;;;;;4904454;29;20416;-56
2022/07/24 00:55:35;;;;;;;6.75;5.32;;;15.20;99.90;;;;;;4903283;29;20052;-57
2022/07/24 00:58:01;;;;;;;7.63;5.90;;;15.20;99.90;;;;;;4904754;29;20040;-57
2022/07/24 01:00:26;;;;;;;5.72;5.13;;;15.20;99.90;;;;;;4887209;29;20052;-56
2022/07/24 01:02:52;;;;;;;6.18;5.43;;;15.20;99.90;;;;;;4903927;29;20128;-56
2022/07/24 01:05:19;;;;;;;6.35;5.60;;;15.10;99.90;;;;;;4904057;29;20044;-56
2022/07/24 01:07:45;;;;;;;10.27;6.38;;;15.10;99.90;;;;;;4979695;23;20066;-56
2022/07/24 01:10:11;;;;;;;8.88;6.00;;;15.10;99.90;;;;;;4959690;28;20493;-57
2022/07/24 01:12:38;;;;;;;7.38;6.03;;;15.10;99.90;;;;;;4957880;28;20046;-57
2022/07/24 01:15:06;;;;;;;9.65;5.82;;;15.10;99.90;;;;;;4961611;28;20061;-57
2022/07/24 01:17:33;;;;;;;7.35;5.60;;;15.10;99.90;;;;;;4961724;28;20057;-57
2022/07/24 01:19:59;;;;;;;6.20;5.60;;;15.10;99.90;;;;;;4961131;28;20058;-56
2022/07/24 01:22:26;;;;;;;8.02;5.88;;;15.00;99.90;;;;;;4961308;28;20509;-56
2022/07/24 01:24:52;;;;;;;8.05;5.90;;;14.90;99.90;;;;;;4961739;28;20047;-57
2022/07/24 01:27:18;;;;;;;8.18;5.80;;;15.00;99.90;;;;;;4960092;28;20054;-55
2022/07/24 01:29:44;;;;;;;7.68;6.18;;;15.00;99.90;;;;;;4961376;28;20051;-56
2022/07/24 01:32:10;;;;;;;6.57;5.43;;;14.90;99.90;;;;;;4961322;28;20050;-57
2022/07/24 01:34:36;;;;;;;7.47;5.68;;;15.00;99.90;;;;;;4961176;28;20047;-57
2022/07/24 01:37:01;;;;;;;7.10;5.30;;;14.90;99.90;;;;;;4961483;28;20101;-56
2022/07/24 01:39:27;;;;;;;7.25;6.07;;;14.90;99.90;;;;;;4960344;28;20055;-57
2022/07/24 01:41:53;;;;;;;7.88;5.20;;;14.90;99.90;;;;;;4961683;28;20070;-57
2022/07/24 01:44:18;;;;;;;6.75;5.28;;;15.00;99.90;;;;;;4964655;28;20055;-56
2022/07/24 01:46:45;;;;;;;9.48;5.43;;;15.00;99.90;;;;;;4965932;28;20130;-55
2022/07/24 01:49:10;;;;;;;7.45;5.13;;;14.90;99.90;;;;;;4964756;28;20770;-57
2022/07/24 01:51:36;;;;;;;8.13;5.80;;;15.00;99.90;;;;;;4964986;28;20134;-56
2022/07/24 01:54:02;;;;;;;8.18;5.47;;;15.00;99.90;;;;;;4964974;28;20081;-57
2022/07/24 01:56:29;;;;;;;7.32;5.57;;;15.00;99.90;;;;;;4963853;28;20105;-57
2022/07/24 01:58:54;;;;;;;7.63;5.20;;;15.10;99.90;;;;;;4965416;28;20057;-57
2022/07/24 02:01:20;;;;;;;6.72;4.93;;;14.90;99.90;;;;;;4964320;28;20046;-57
2022/07/24 02:03:46;;;;;;;7.60;5.55;;;15.00;99.90;;;;;;4964980;28;20073;-57
2022/07/24 02:06:12;;;;;;;6.95;5.68;;;14.90;99.90;;;;;;4938749;29;20079;-56
2022/07/24 02:08:38;;;;;;;7.15;5.43;;;14.90;99.90;;;;;;4934601;29;20406;-57
2022/07/24 02:11:04;;;;;;;6.85;5.65;;;15.00;99.90;;;;;;4925508;29;20052;-57
2022/07/24 02:13:30;;;;;;;6.93;5.50;;;14.90;99.90;;;;;;4925846;29;20665;-57
2022/07/24 02:15:56;;;;;;;8.93;5.50;;;14.90;99.90;;;;;;4925928;29;20135;-57
2022/07/24 02:18:22;;;;;;;7.57;5.57;;;14.90;99.90;;;;;;4924440;29;20051;-57
2022/07/24 02:20:48;;;;;;;7.43;5.68;;;15.00;99.90;;;;;;4926304;29;20048;-57
2022/07/24 02:23:17;;;;;;;7.80;5.45;;;14.90;99.90;;;;;;4940765;29;20054;-57
2022/07/24 02:25:47;;;;;;;9.05;6.03;;;14.90;99.90;;;;;;4925200;29;20259;-57
2022/07/24 02:28:14;;;;;;;6.85;6.10;;;14.90;99.90;;;;;;4926091;29;20046;-56
2022/07/24 02:30:40;;;;;;;7.15;5.60;;;14.90;99.90;;;;;;4926209;29;20103;-57
2022/07/24 02:33:06;;;;;;;7.68;6.03;;;14.90;99.90;;;;;;4925258;29;20036;-57
2022/07/24 02:35:32;;;;;;;7.13;6.28;;;14.90;99.90;;;;;;4925644;29;20134;-57
2022/07/24 02:37:57;;;;;;;8.27;6.32;;;14.90;99.90;;;;;;4925897;29;20106;-56
2022/07/24 02:40:23;;;;;;;8.23;5.85;;;14.90;99.90;;;;;;4924465;29;20036;-57
2022/07/24 02:42:49;;;;;;;6.75;6.10;;;14.90;99.90;;;;;;4939879;29;20055;-57
2022/07/24 02:45:15;;;;;;;7.53;5.82;;;14.90;99.90;;;;;;4925784;29;20036;-57
2022/07/24 02:47:52;;;;;;;7.13;5.88;;;14.90;99.90;;;;;;4926052;29;20139;-57
2022/07/24 02:50:19;;;;;;;7.35;5.50;;;14.90;99.90;;;;;;4924977;29;20055;-57
2022/07/24 02:52:46;;;;;;;7.30;6.07;;;14.90;99.90;;;;;;4925696;29;20051;-57
2022/07/24 02:55:11;;;;;;;7.47;6.10;;;14.90;99.90;;;;;;4925157;29;20050;-57
2022/07/24 02:57:37;;;;;;;8.00;6.30;;;14.90;99.90;;;;;;4925485;29;20289;-57
2022/07/24 03:00:06;;;;;;;8.02;5.90;;;14.90;99.90;;;;;;4924729;29;20046;-58
2022/07/24 03:02:32;;;;;;;9.43;5.78;;;14.90;99.90;;;;;;4925403;29;20646;-57
2022/07/24 03:04:58;;;;;;;7.28;6.15;;;14.90;99.90;;;;;;4925777;29;20126;-57
2022/07/24 03:07:23;;;;;;;6.72;5.53;;;14.90;99.90;;;;;;4937811;29;20119;-57
2022/07/24 03:09:49;;;;;;;11.55;6.60;;;14.90;99.90;;;;;;4938762;29;20043;-57
2022/07/24 03:12:14;;;;;;;9.32;6.07;;;14.90;99.90;;;;;;4925479;29;20067;-57
2022/07/24 03:14:40;;;;;;;6.80;5.97;;;15.00;99.90;;;;;;4925163;29;20406;-57
2022/07/24 03:17:05;;;;;;;7.28;6.03;;;14.90;99.90;;;;;;4925270;29;20052;-57
2022/07/24 03:19:31;;;;;;;6.88;5.80;;;14.90;99.90;;;;;;4922935;29;20052;-57
2022/07/24 03:21:57;;;;;;;7.13;6.13;;;14.90;99.90;;;;;;4925589;29;20066;-57
2022/07/24 03:24:22;;;;;;;8.73;5.75;;;14.90;99.90;;;;;;4923435;29;20039;-57
2022/07/24 03:26:48;;;;;;;10.15;6.75;;;14.90;99.90;;;;;;4924536;29;20124;-57
2022/07/24 03:29:14;;;;;;;10.90;6.05;;;14.90;99.90;;;;;;4923049;29;20138;-57
2022/07/24 03:31:39;;;;;;;7.47;6.13;;;14.90;99.90;;;;;;4924787;29;20071;-57
2022/07/24 03:34:06;;;;;;;6.93;6.05;;;14.90;99.90;;;;;;4924535;29;20048;-57
2022/07/24 03:36:32;;;;;;;7.63;6.07;;;14.90;99.90;;;;;;4924330;29;20048;-57
2022/07/24 03:38:57;;;;;;;7.65;6.13;;;14.90;99.90;;;;;;4923986;29;20091;-57
2022/07/24 03:41:23;;;;;;;7.43;6.40;;;15.00;99.90;;;;;;4923230;29;20087;-57
2022/07/24 03:43:49;;;;;;;8.13;6.07;;;14.90;99.90;;;;;;4925365;29;20055;-57
2022/07/24 03:46:15;;;;;;;7.55;6.20;;;14.90;99.90;;;;;;4924919;29;20051;-57
2022/07/24 03:48:41;;;;;;;8.40;6.00;;;14.90;99.90;;;;;;4924510;29;20390;-57
2022/07/24 03:51:06;;;;;;;8.73;6.55;;;15.00;99.90;;;;;;4924672;29;20051;-57
2022/07/24 03:53:32;;;;;;;9.40;6.13;;;15.00;99.90;;;;;;4924195;29;20039;-57
2022/07/24 03:55:58;;;;;;;8.23;6.10;;;15.00;99.90;;;;;;4923952;29;20051;-57
2022/07/24 03:58:23;;;;;;;7.57;6.55;;;15.00;99.90;;;;;;4923205;29;20044;-56
2022/07/24 04:00:49;;;;;;;7.53;6.13;;;15.10;99.90;;;;;;4924552;29;20487;-56
2022/07/24 04:03:15;;;;;;;9.15;6.07;;;15.10;99.90;;;;;;4924529;29;20154;-56
2022/07/24 04:05:40;;;;;;;6.88;5.60;;;15.10;99.90;;;;;;4923697;29;20566;-57
2022/07/24 04:08:06;;;;;;;7.25;5.72;;;15.10;99.90;;;;;;4934106;29;20060;-56
2022/07/24 04:10:32;;;;;;;8.57;6.28;;;15.20;99.90;;;;;;4923318;29;20059;-57
2022/07/24 04:12:57;;;;;;;8.27;5.90;;;15.20;99.90;;;;;;4924169;29;20071;-57
2022/07/24 04:15:23;;;;;;;6.45;5.70;;;15.20;99.90;;;;;;4923322;29;20126;-56
2022/07/24 04:17:48;;;;;;;7.97;5.68;;;15.20;99.90;;;;;;4922248;29;20055;-57
2022/07/24 04:20:14;;;;;;;8.70;5.82;;;15.30;99.90;;;;;;4924104;29;20094;-56
2022/07/24 04:22:40;;;;;;;6.72;6.00;;;15.30;99.90;;;;;;4924278;29;20047;-56
2022/07/24 04:25:08;;;;;;;8.38;6.00;;;15.30;99.90;;;;;;4921503;29;20052;-56
2022/07/24 04:27:33;;;;;;;8.50;5.70;;;15.30;99.90;;;;;;4923639;29;20121;-57
2022/07/24 04:29:59;;;;;;;7.00;5.50;;;15.30;99.90;;;;;;4923757;29;20052;-56
2022/07/24 04:32:25;;;;;;;6.32;5.47;;;15.30;99.90;;;;;;4923195;29;20784;-56
2022/07/24 04:34:51;;;;;;;7.55;5.93;;;15.30;99.90;;;;;;4923844;29;20047;-56
2022/07/24 04:37:17;;;;;;;7.90;6.05;;;15.40;99.90;;;;;;4923278;29;20052;-55
2022/07/24 04:39:42;;;;;;;8.73;5.47;;;15.40;99.90;;;;;;4921955;29;20111;-56
2022/07/24 04:42:08;;;;;;;6.35;5.38;;;15.40;99.90;;;;;;4923565;29;20537;-56
2022/07/24 04:44:33;;;;;;;7.10;6.18;;;15.40;99.90;;;;;;4922771;29;20044;-56
2022/07/24 04:46:59;;;;;;;7.32;5.65;;;15.40;99.90;;;;;;4923804;29;20040;-56
2022/07/24 04:49:25;;;;;;;6.50;5.75;;;15.50;99.90;;;;;;4937817;29;20143;-56
2022/07/24 04:51:51;;;;;;;8.13;6.28;;;15.50;99.90;;;;;;4923979;29;20122;-56
2022/07/24 04:54:16;;;;;;;6.95;5.57;;;15.60;99.90;;;;;;4922489;29;20090;-55
2022/07/24 04:56:42;;;;;;;7.13;6.13;;;15.70;99.90;;;;;;4923266;29;20494;-56
2022/07/24 04:59:07;;;;;;;6.35;5.75;;;15.70;99.90;;;;;;4923413;29;20066;-56
2022/07/24 05:01:33;;;;;;;6.93;6.13;;;15.80;99.90;;;;;;4923689;29;20505;-57
2022/07/24 05:03:59;;;;;;;7.65;5.90;;;15.80;99.90;;;;;;4937678;29;20044;-56
2022/07/24 05:06:25;;;;;;;6.88;5.70;;;15.90;99.90;;;;;;4931048;28;20077;-56
2022/07/24 05:08:51;;;;;;;7.57;5.57;;;15.80;99.90;;;;;;4951008;28;20086;-57
2022/07/24 05:11:17;;;;;;;9.25;5.97;;;15.90;99.90;;;;;;4941103;29;20043;-54
2022/07/24 05:13:42;;;;;;;6.88;5.45;;;15.90;99.90;;;;;;4942397;29;20046;-56
2022/07/24 05:16:09;;;;;;;5.95;5.35;;;16.00;99.90;;;;;;4941979;29;20143;-56
2022/07/24 05:18:35;;;;;;;7.90;5.13;;;16.10;99.90;;;;;;4942194;29;21155;-56
2022/07/24 05:21:01;;;;;;;7.65;5.32;;;16.10;99.90;;;;;;4942203;29;20494;-57
2022/07/24 05:23:27;;;;;;;7.68;5.45;;;16.20;99.90;;;;;;4940852;29;20051;-57
2022/07/24 05:25:52;;;;;;;7.90;5.75;;;16.20;99.90;;;;;;4941709;29;20063;-57
2022/07/24 05:28:18;;;;;;;7.65;6.10;;;16.20;99.90;;;;;;4941358;29;20040;-56
2022/07/24 05:30:44;;;;;;;5.93;5.40;;;16.30;99.90;;;;;;4942578;29;20562;-55
2022/07/24 05:33:09;;;;;;;7.20;5.18;;;16.30;99.90;;;;;;4940031;29;20056;-57
2022/07/24 05:35:35;;;;;;;5.15;4.65;;;16.50;99.90;;;;;;4941857;29;20164;-56
2022/07/24 05:38:01;;;;;;;8.00;5.75;;;16.60;99.90;;;;;;4942465;29;20050;-56
2022/07/24 05:40:26;;;;;;;6.82;5.68;;;16.70;99.90;;;;;;4940545;29;20442;-57
2022/07/24 05:42:52;;;;;;;6.63;4.75;;;16.70;99.90;;;;;;4941775;29;20091;-57
2022/07/24 05:45:18;;;;;;;7.22;5.18;;;16.70;99.90;;;;;;4941299;29;20050;-57
2022/07/24 05:47:43;;;;;;;8.18;5.85;;;16.80;99.90;;;;;;4941538;29;20129;-56
2022/07/24 05:50:11;;;;;;;6.68;6.07;;;16.80;99.90;;;;;;4940498;29;20100;-56
2022/07/24 05:52:37;;;;;;;7.82;5.55;;;16.80;99.90;;;;;;4941279;29;20039;-56
2022/07/24 05:55:04;;;;;;;7.63;5.25;;;16.80;99.90;;;;;;4941102;29;20113;-57
2022/07/24 05:57:30;;;;;;;6.65;5.57;;;16.70;99.90;;;;;;4924005;29;20513;-56
2022/07/24 05:59:55;;;;;;;7.38;5.70;;;16.70;99.90;;;;;;4941580;29;20047;-56
2022/07/24 06:02:21;;;;;;;6.57;5.88;;;17.10;99.90;;;;;;4941456;29;20482;-56
2022/07/24 06:04:47;;;;;;;6.97;4.80;;;17.50;99.90;;;;;;4941869;29;20047;-57
2022/07/24 06:07:12;;;;;;;7.68;5.45;;;17.60;99.90;;;;;;4948869;28;20051;-56
2022/07/24 06:09:39;;;;;;;7.35;5.93;;;17.80;99.90;;;;;;4939036;29;20097;-57
2022/07/24 06:12:05;;;;;;;7.05;5.32;;;18.00;99.90;;;;;;4941832;29;20059;-56
2022/07/24 06:14:31;;;;;;;7.85;5.40;;;18.20;99.90;;;;;;4940906;29;20146;-56
2022/07/24 06:16:57;;;;;;;7.97;5.30;;;18.50;99.90;;;;;;4924653;29;20081;-56
2022/07/24 06:19:23;;;;;;;7.82;5.30;;;18.60;99.90;;;;;;4923417;29;20043;-57
2022/07/24 06:21:49;;;;;;;7.18;5.50;;;18.80;99.90;;;;;;4941677;29;20094;-57
2022/07/24 06:24:14;;;;;;;8.85;5.97;;;19.00;99.90;;;;;;4941533;29;20517;-56
2022/07/24 06:26:40;;;;;;;6.13;4.35;;;19.10;99.90;;;;;;4941329;29;20043;-56
2022/07/24 06:29:06;;;;;;;9.38;6.20;;;19.10;99.90;;;;;;4926153;29;20055;-57
2022/07/24 06:31:32;;;;;;;9.10;5.20;;;19.20;99.90;;;;;;4944590;29;20082;-57
2022/07/24 06:33:58;;;;;;;7.35;6.03;;;18.90;99.90;;;;;;4945280;29;20044;-56
2022/07/24 06:36:23;;;;;;;8.27;6.10;;;19.00;99.90;;;;;;4944155;29;20065;-56
2022/07/24 06:38:49;;;;;;;7.45;4.82;;;19.10;99.90;;;;;;4944117;29;20047;-57
2022/07/24 06:41:15;;;;;;;6.97;5.93;;;19.20;99.90;;;;;;4944115;29;20130;-57
2022/07/24 06:43:40;;;;;;;10.13;6.40;;;19.40;99.90;;;;;;4944816;29;20051;-57
2022/07/24 06:46:06;;;;;;;7.28;6.53;;;19.60;99.90;;;;;;4945287;29;20043;-56
2022/07/24 06:48:32;;;;;;;7.13;5.80;;;19.90;99.90;;;;;;4943738;29;20074;-56
2022/07/24 06:50:58;;;;;;;8.48;5.53;;;19.90;99.90;;;;;;4945002;29;20043;-56
2022/07/24 06:53:24;;;;;;;8.02;5.97;;;20.60;99.90;;;;;;4944020;29;20605;-56
2022/07/24 06:55:53;;;;;;;9.48;7.43;;;20.20;99.90;;;;;;4944077;29;20067;-57
2022/07/24 06:58:19;;;;;;;9.95;7.60;;;20.10;99.90;;;;;;4944109;29;20058;-56
2022/07/24 07:00:46;;;;;;;7.78;6.30;;;20.00;99.90;;;;;;4945078;29;20470;-56
2022/07/24 07:03:12;;;;;;;9.48;7.28;;;20.00;99.90;;;;;;4927535;29;20074;-58
2022/07/24 07:05:38;;;;;;;10.48;7.60;;;20.10;99.90;;;;;;4944085;28;20090;-57
2022/07/24 07:08:03;;;;;;;9.80;7.30;;;20.30;99.90;;;;;;4955023;28;20858;-57
2022/07/24 07:10:29;;;;;;;7.00;5.50;;;20.10;99.90;;;;;;4943233;29;20050;-56
2022/07/24 07:12:55;;;;;;;10.95;7.70;;;20.20;99.90;;;;;;4944164;29;20471;-58
2022/07/24 07:15:21;;;;;;;11.40;8.80;;;20.20;99.90;;;;;;4942328;29;20506;-56
2022/07/24 07:17:46;;;;;;;9.88;8.27;;;20.40;99.90;;;;;;4944344;29;20098;-57
2022/07/24 07:20:13;;;;;;;9.80;7.97;;;20.80;99.90;;;;;;4944384;28;20113;-56
2022/07/24 07:22:39;;;;;;;10.95;8.32;;;20.90;99.90;;;;;;4926893;29;20622;-57
2022/07/24 07:25:06;;;;;;;10.70;8.30;;;20.90;99.90;;;;;;4942537;29;20070;-56
2022/07/24 07:27:32;;;;;;;12.82;9.30;;;21.00;99.90;;;;;;4942569;29;20054;-57
2022/07/24 07:29:57;;;;;;;11.25;8.73;;;20.90;99.90;;;;;;4943744;29;20054;-56
2022/07/24 07:32:23;;;;;;;11.63;8.38;;;21.50;99.90;;;;;;4942370;29;20039;-57
2022/07/24 07:34:49;;;;;;;10.07;8.20;;;21.70;99.90;;;;;;4943298;29;20043;-57
2022/07/24 07:37:14;;;;;;;10.68;9.20;;;21.40;99.90;;;;;;4943982;29;20483;-57
2022/07/24 07:39:40;;;;;;;12.68;9.05;;;21.30;99.90;;;;;;4942588;28;20051;-57
2022/07/24 07:42:06;;;;;;;11.95;9.38;;;21.50;99.90;;;;;;4943536;29;20047;-56
2022/07/24 07:44:31;;;;;;;13.02;9.85;;;21.40;99.90;;;;;;4925764;29;20055;-57
2022/07/24 07:46:57;;;;;;;13.07;9.93;;;21.60;99.90;;;;;;4942157;29;20732;-56
2022/07/24 07:49:23;;;;;;;13.45;10.57;;;21.30;99.90;;;;;;4943315;29;20513;-57
2022/07/24 07:51:51;;;;;;;11.40;9.98;;;21.50;99.90;;;;;;4943748;29;20039;-58
2022/07/24 07:54:17;;;;;;;12.57;10.13;;;22.00;99.90;;;;;;4941791;29;20406;-57
2022/07/24 07:56:43;;;;;;;12.43;9.85;;;21.80;99.90;;;;;;4926905;29;20551;-56
2022/07/24 07:59:09;;;;;;;12.63;10.63;;;21.80;99.90;;;;;;4943352;29;20909;-57
2022/07/24 08:01:36;;;;;;;14.10;10.20;;;21.90;99.90;;;;;;4943261;29;20047;-57
2022/07/24 08:04:02;;;;;;;15.48;12.00;;;21.90;99.90;;;;;;4925623;29;20218;-57
2022/07/24 08:06:27;;;;;;;15.75;11.45;;;21.90;99.90;;;;;;4945164;28;20114;-57
2022/07/24 08:08:53;;;;;;;13.70;11.27;;;22.10;99.90;;;;;;4951403;28;20051;-57
2022/07/24 08:11:19;;;;;;;14.73;10.50;;;22.40;99.90;;;;;;4941841;29;20047;-56
2022/07/24 08:13:44;;;;;;;14.25;10.73;;;22.60;99.90;;;;;;4943525;29;20074;-56
2022/07/24 08:16:10;;;;;;;17.00;12.15;;;22.70;99.90;;;;;;4942978;29;20043;-58
2022/07/24 08:18:36;;;;;;;13.40;11.45;;;23.00;99.90;;;;;;4943120;29;20084;-58
2022/07/24 08:21:02;;;;;;;12.10;9.02;;;23.00;99.90;;;;;;4941149;28;20059;-58
2022/07/24 08:23:27;;;;;;;14.23;11.05;;;22.70;99.90;;;;;;4925324;29;20042;-58
2022/07/24 08:25:53;;;;;;;15.75;11.65;;;22.60;99.90;;;;;;4942418;29;20438;-58
2022/07/24 08:28:19;;;;;;;12.88;11.45;;;22.80;99.90;;;;;;4942680;29;20046;-57
2022/07/24 08:30:44;;;;;;;13.05;9.18;;;22.60;99.90;;;;;;4942954;29;20126;-58
2022/07/24 08:33:10;;;;;;;13.40;10.85;;;22.80;99.90;;;;;;4943057;29;20039;-59
2022/07/24 08:35:36;;;;;;;13.88;12.23;;;23.20;99.90;;;;;;4942343;29;20082;-58
2022/07/24 08:38:02;;;;;;;12.85;11.20;;;23.20;99.90;;;;;;4941692;29;20441;-59
2022/07/24 08:40:37;;;;;;;14.02;11.43;;;23.30;99.90;;;;;;4941014;29;20171;-57
2022/07/24 08:43:04;;;;;;;14.52;11.05;;;23.40;99.90;;;;;;4942952;29;20539;-57
2022/07/24 08:45:33;;;;;;;12.88;10.10;;;23.70;99.90;;;;;;4942084;29;20043;-58
2022/07/24 08:48:02;;;;;;;10.63;8.43;;;23.80;99.90;;;;;;4942069;29;20049;-58
2022/07/24 08:50:27;;;;;;;9.32;7.93;;;23.80;99.90;;;;;;4941956;28;20087;-57
2022/07/24 08:52:54;;;;;;;8.02;6.72;;;23.80;99.90;;;;;;4942270;29;20757;-57
2022/07/24 08:55:20;;;;;;;8.38;6.85;;;23.90;99.90;;;;;;4941393;29;20083;-57
2022/07/24 08:57:46;;;;;;;8.20;6.57;;;23.90;99.90;;;;;;4942244;29;20047;-57
2022/07/24 09:00:12;;;;;;;9.75;7.50;;;24.20;99.90;;;;;;4942479;29;20040;-56
2022/07/24 09:02:38;;;;;;;8.00;6.78;;;24.40;99.90;;;;;;4942545;29;20043;-57
2022/07/24 09:05:04;;;;;;;6.55;4.68;;;24.40;99.90;;;;;;4942377;29;20050;-57
2022/07/24 09:07:30;;;;;;;6.03;4.72;;;24.30;99.90;;;;;;4950767;28;20410;-57
2022/07/24 09:10:11;;;;;;;6.53;4.28;;;24.40;99.90;;;;;;4942671;28;20110;-56
2022/07/24 09:12:44;;;;;;;6.13;4.55;;;24.40;99.90;;;;;;4942376;29;20047;-57
2022/07/24 09:15:17;;;;;;;6.45;4.55;;;24.40;99.90;;;;;;4942091;29;20375;-57
2022/07/24 09:17:54;;;;;;;6.97;4.72;;;24.50;99.90;;;;;;4942638;29;20094;-57
2022/07/24 09:20:21;;;;;;;5.30;4.43;;;24.40;99.90;;;;;;4940840;29;20082;-57
2022/07/24 09:22:47;;;;;;;7.25;4.78;;;24.30;99.90;;;;;;4941856;29;20149;-57
2022/07/24 09:25:22;;;;;;;5.38;4.22;;;24.00;99.90;;;;;;4951494;28;20075;-57
2022/07/24 09:27:58;;;;;;;5.70;4.07;;;24.20;99.90;;;;;;4961309;28;20126;-57
2022/07/24 09:30:31;;;;;;;5.07;3.38;;;24.30;99.90;;;;;;4960342;28;20051;-57
2022/07/24 09:33:00;;;;;;;3.58;2.50;;;24.30;99.90;;;;;;4961163;28;20047;-56
2022/07/24 09:35:29;;;;;;;6.93;3.92;;;24.30;99.90;;;;;;4960081;28;20510;-57
2022/07/24 09:37:56;;;;;;;5.80;3.15;;;24.60;99.90;;;;;;4960956;28;20034;-57
2022/07/24 09:40:29;;;;;;;3.63;2.88;;;24.50;99.90;;;;;;4958998;28;20050;-57
2022/07/24 09:43:11;;;;;;;5.10;3.30;;;24.80;99.90;;;;;;4961027;28;20043;-57
2022/07/24 09:45:56;;;;;;;4.90;3.30;;;24.90;99.90;;;;;;4960704;28;20054;-57
2022/07/24 09:48:23;;;;;;;;;;;25.20;99.90;;;;;;4960615;28;20541;-57
2022/07/24 09:50:53;;;;;;;4.45;3.03;;;25.20;99.90;;;;;;4960868;28;19922;-58
2022/07/24 09:53:20;;;;;;;5.40;3.10;;;25.10;99.90;;;;;;4960744;28;20383;-56
2022/07/24 09:56:06;;;;;;;4.60;3.20;;;24.80;99.90;;;;;;4960010;28;20093;-56
2022/07/24 09:58:35;;;;;;;3.95;3.08;;;24.70;99.90;;;;;;4960387;28;20455;-57
2022/07/24 10:01:02;;;;;;;5.65;3.20;;;24.40;99.90;;;;;;4960885;28;20057;-56
2022/07/24 10:03:30;;;;;;;4.35;2.90;;;24.90;99.90;;;;;;4961690;28;20039;-56
2022/07/24 10:06:05;;;;;;;5.07;2.97;;;25.30;99.90;;;;;;4961758;28;20046;-56
2022/07/24 10:08:32;;;;;;;3.25;2.35;;;25.40;99.90;;;;;;4959921;28;20078;-56
2022/07/24 10:10:58;;;;;;;7.68;3.10;;;25.50;99.90;;;;;;4963698;28;20054;-57
2022/07/24 10:13:27;;;;;;;3.22;2.38;;;25.60;99.90;;;;;;4963449;28;20141;-56
2022/07/24 10:16:11;;;;;;;4.13;2.85;;;25.70;99.90;;;;;;4963840;28;20098;-57
2022/07/24 10:18:55;;;;;;;3.92;2.97;;;25.40;99.90;;;;;;4964041;28;20065;-57
2022/07/24 10:21:29;;;;;;;4.28;3.13;;;25.60;99.90;;;;;;4964104;28;20043;-56
2022/07/24 10:24:07;;;;;;;3.28;2.28;;;25.70;99.90;;;;;;4946208;28;21106;-57
2022/07/24 10:26:49;;;;;;;7.28;2.97;;;25.70;99.90;;;;;;4963479;28;20057;-57
2022/07/24 10:29:17;;;;;;;3.70;2.90;;;26.00;99.90;;;;;;4946770;28;20122;-56
2022/07/24 10:31:46;;;;;;;5.10;3.05;;;26.20;99.90;;;;;;4963563;28;20039;-57
2022/07/24 10:34:24;;;;;;;4.13;2.95;;;26.10;99.90;;;;;;4964233;28;20051;-56
2022/07/24 10:37:13;;;;;;;2.85;2.30;;;26.40;99.90;;;;;;4946391;28;20046;-58
2022/07/24 10:40:07;;;;;;;3.83;2.40;;;26.20;99.90;;;;;;4962934;28;20460;-59
2022/07/24 10:42:32;;;;;;;4.45;2.60;;;26.30;99.90;;;;;;4963450;28;20113;-58
2022/07/24 10:45:18;;;;;;;6.15;2.85;;;26.80;99.90;;;;;;4964191;28;20051;-58
2022/07/24 10:47:45;;;;;;;3.42;2.75;;;26.90;99.90;;;;;;4964593;28;20117;-58
2022/07/24 10:50:12;;;;;;;4.55;2.92;;;26.70;99.90;;;;;;4963927;28;20382;-59
2022/07/24 10:52:39;;;;;;;3.08;2.58;;;26.90;99.90;;;;;;4963792;28;20047;-58
2022/07/24 10:55:20;;;;;;;4.55;2.63;;;26.40;99.90;;;;;;4963372;28;20469;-59
2022/07/24 10:58:01;;;;;;;5.25;2.70;;;25.90;99.90;;;;;;4963290;28;20047;-58
2022/07/24 11:00:34;;;;;;;3.35;2.80;;;26.30;99.90;;;;;;4963420;28;20046;-58
2022/07/24 11:03:05;;;;;;;4.18;2.95;;;26.00;99.90;;;;;;4963196;28;20059;-58
2022/07/24 11:05:32;;;;;;;3.65;2.50;;;26.40;99.90;;;;;;4962827;28;20045;-58
2022/07/24 11:08:17;;;;;;;3.67;2.42;;;26.60;99.90;;;;;;4951812;28;20054;-58
2022/07/24 11:10:47;;;;;;;5.60;2.95;;;26.60;99.90;;;;;;4963001;28;20252;-58
2022/07/24 11:13:31;;;;;;;4.57;3.00;;;27.00;99.90;;;;;;4946354;28;20038;-58
2022/07/24 11:16:18;;;;;;;3.92;2.80;;;26.80;99.90;;;;;;4962938;28;20489;-58
2022/07/24 11:18:50;;;;;;;4.40;2.60;;;27.00;99.90;;;;;;4963781;28;20055;-58
2022/07/24 11:21:37;;;;;;;3.65;2.72;;;27.00;99.90;;;;;;4962934;28;20047;-58
2022/07/24 11:24:21;;;;;;;3.60;2.70;;;26.80;99.90;;;;;;4962638;28;20085;-58
2022/07/24 11:27:12;;;;;;;5.78;3.30;;;26.60;99.90;;;;;;4945523;28;20105;-59
2022/07/24 11:29:38;;;;;;;3.90;3.00;;;26.70;99.90;;;;;;4963131;28;20130;-57
2022/07/24 11:32:11;;;;;;;5.15;2.80;;;26.80;99.90;;;;;;4962497;28;20517;-58
2022/07/24 11:34:37;;;;;;;3.60;2.85;;;27.10;99.90;;;;;;4962802;28;20932;-59
2022/07/24 11:37:09;;;;;;;4.28;3.13;;;27.20;99.90;;;;;;4945754;28;20073;-58
2022/07/24 11:39:36;;;;;;;3.22;2.70;;;27.10;99.90;;;;;;4961739;28;20039;-59
2022/07/24 11:42:05;;;;;;;4.00;2.90;;;26.90;99.90;;;;;;4945577;28;20043;-58
2022/07/24 11:44:36;;;;;;;4.57;2.58;;;26.50;99.90;;;;;;4962550;28;20043;-59
2022/07/24 11:47:37;;;;;;;4.72;2.63;;;26.40;99.90;;;;;;4962612;28;20078;-58
2022/07/24 11:50:06;;;;;;;4.32;2.90;;;26.40;99.90;;;;;;4902365;29;20880;-58
2022/07/24 11:52:35;;;;;;;3.60;2.53;;;26.50;99.90;;;;;;4933735;28;20107;-59
2022/07/24 11:55:14;;;;;;;4.85;2.70;;;26.70;99.90;;;;;;4962183;28;20055;-57
2022/07/24 11:57:43;;;;;;;4.30;2.35;;;27.10;99.90;;;;;;4962437;28;20050;-58
2022/07/24 12:00:12;;;;;;;4.50;2.72;;;27.20;99.90;;;;;;4961746;28;20477;-58
2022/07/24 12:02:47;;;;;;;3.80;2.70;;;27.70;99.90;;;;;;4962731;28;20049;-58
2022/07/24 12:05:13;;;;;;;3.80;2.70;;;28.10;99.90;;;;;;4945667;28;20069;-57
2022/07/24 12:07:39;;;;;;;4.93;2.80;;;27.60;99.90;;;;;;4954986;28;20073;-58
2022/07/24 12:10:05;;;;;;;4.03;2.83;;;27.30;99.90;;;;;;4942439;29;20043;-58
2022/07/24 12:12:37;;;;;;;4.85;2.70;;;27.40;99.90;;;;;;4942778;29;20047;-55
2022/07/24 12:15:13;;;;;;;3.50;2.67;;;27.00;99.90;;;;;;4941979;29;20134;-56
2022/07/24 12:18:03;;;;;;;3.53;2.55;;;26.70;99.90;;;;;;4942865;29;20118;-56
2022/07/24 12:20:35;;;;;;;3.42;2.70;;;27.00;99.90;;;;;;4942161;29;20041;-57
2022/07/24 12:23:02;;;;;;;5.72;2.72;;;27.30;99.90;;;;;;4942686;29;20189;-57
2022/07/24 12:25:29;;;;;;;4.25;2.65;;;27.20;99.90;;;;;;4941188;28;20066;-56
2022/07/24 12:28:09;;;;;;;3.92;2.60;;;27.20;99.90;;;;;;4942852;29;20039;-57
2022/07/24 12:30:46;;;;;;;3.97;2.72;;;27.40;99.90;;;;;;4942087;29;20054;-57
2022/07/24 12:33:15;;;;;;;3.75;2.60;;;27.80;99.90;;;;;;4942706;29;20039;-56
2022/07/24 12:35:54;;;;;;;3.88;2.70;;;27.90;99.90;;;;;;4941572;29;20086;-57
2022/07/24 12:38:26;;;;;;;3.42;2.50;;;27.90;99.90;;;;;;4924501;29;20050;-56
2022/07/24 12:41:00;;;;;;;5.05;2.50;;;28.10;99.90;;;;;;4942508;29;20726;-56
2022/07/24 12:43:28;;;;;;;4.53;2.85;;;28.00;99.90;;;;;;4942401;29;20047;-57
2022/07/24 12:46:10;;;;;;;6.30;2.60;;;28.00;99.90;;;;;;4942702;29;20051;-57
2022/07/24 12:48:36;;;;;;;3.45;2.50;;;28.10;99.90;;;;;;4941414;29;20106;-57
2022/07/24 12:51:08;;;;;;;3.17;1.88;;;27.90;99.90;;;;;;4942593;29;20055;-56